Time;durP1;ratioP1;P1;durP2;ratioP2;P2;SDS_P1;SDS_P2;PMS_P1;PMS_P2;Temp;Humidity;BMP_temperature;BMP_pressure;BME280_temperature;BME280_humidity;BME280_pressure;Samples;Min_cycle;Max_cycle;Signal;HPM_P1;HPM_P2
2023/07/05 00:00:54;;;;;;;10.93;3.75;;;;;;;17.49;82.29;100959.41;20731161;28;20050;-60
2023/07/05 00:11:16;;;;;;;14.07;4.00;;;;;;;17.41;82.98;100940.63;20713368;28;20129;-60
2023/07/05 00:21:38;;;;;;;10.35;3.88;;;;;;;17.34;84.84;100931.44;20717292;28;20054;-60
2023/07/05 00:31:59;;;;;;;9.95;3.90;;;;;;;17.33;83.76;100906.19;20709228;28;20049;-60
2023/07/05 00:42:21;;;;;;;13.82;4.43;;;;;;;17.28;84.54;100863.78;20712409;28;20499;-60
2023/07/05 00:52:43;;;;;;;13.73;4.20;;;;;;;17.21;83.27;100815.34;20714723;28;20057;-60
2023/07/05 01:03:10;;;;;;;7.78;3.80;;;;;;;17.22;84.99;100806.56;20726081;28;20045;-60
2023/07/05 01:13:41;;;;;;;13.38;4.43;;;;;;;17.18;85.50;100784.16;20727488;28;20153;-61
2023/07/05 01:24:24;;;;;;;9.63;4.03;;;;;;;17.13;85.44;100760.88;20711690;28;20057;-60
2023/07/05 01:35:06;;;;;;;12.00;4.40;;;;;;;17.09;85.52;100733.22;20711690;28;20050;-61
2023/07/05 01:45:44;;;;;;;11.82;4.38;;;;;;;17.17;84.28;100728.38;20740709;28;20460;-60
2023/07/05 01:56:13;;;;;;;11.27;4.50;;;;;;;17.19;83.74;100695.13;20718599;28;20042;-60
2023/07/05 02:06:37;;;;;;;12.13;5.07;;;;;;;17.07;85.05;100652.25;20724218;28;20041;-60
2023/07/05 02:16:59;;;;;;;11.80;5.50;;;;;;;16.98;85.75;100646.72;20705165;28;20049;-60
2023/07/05 02:27:21;;;;;;;15.07;5.82;;;;;;;16.81;86.83;100634.63;20709393;28;20531;-60
2023/07/05 02:37:43;;;;;;;17.88;6.30;;;;;;;16.57;90.56;100630.84;20704571;28;20140;-60
2023/07/05 02:48:05;;;;;;;15.60;6.43;;;;;;;16.47;92.29;100603.56;20704872;28;20129;-61
2023/07/05 02:58:26;;;;;;;15.25;7.35;;;;;;;16.37;94.95;100573.66;20708394;28;20042;-61
2023/07/05 03:08:48;;;;;;;16.00;7.03;;;;;;;16.27;96.43;100559.44;20723407;28;20046;-60
2023/07/05 03:19:10;;;;;;;17.08;7.40;;;;;;;16.16;98.04;100525.28;20701544;28;21929;-60
2023/07/05 03:29:31;;;;;;;13.15;7.75;;;;;;;16.14;98.32;100506.25;20700851;28;20050;-61
2023/07/05 03:39:53;;;;;;;15.05;8.55;;;;;;;16.11;99.24;100465.50;20694138;28;20400;-61
2023/07/05 03:50:15;;;;;;;16.80;8.40;;;;;;;16.09;98.51;100445.66;20711250;28;20041;-60
2023/07/05 04:00:36;;;;;;;12.02;7.10;;;;;;;16.10;97.03;100422.06;20701794;28;20404;-60
2023/07/05 04:10:58;;;;;;;14.60;8.18;;;;;;;16.12;97.32;100414.13;20736285;28;20046;-60
2023/07/05 04:21:21;;;;;;;16.40;8.07;;;;;;;16.09;98.94;100393.44;20716241;28;20046;-61
2023/07/05 04:31:42;;;;;;;13.90;8.27;;;;;;;15.96;99.46;100366.38;20747269;28;20507;-61
2023/07/05 04:42:04;;;;;;;15.50;8.00;;;;;;;15.97;99.88;100368.91;20734911;28;20190;-60
2023/07/05 04:52:26;;;;;;;15.00;8.15;;;;;;;15.99;99.16;100360.97;20716954;28;20057;-60
2023/07/05 05:02:47;;;;;;;;;;;;;;;16.05;100.00;100355.38;20716042;28;20060;-60
2023/07/05 05:13:09;;;;;;;9.75;6.90;;;;;;;16.14;99.51;100347.00;20701554;28;20307;-59
2023/07/05 05:23:31;;;;;;;;;;;;;;;16.33;100.00;100338.88;20713030;28;20041;-61
2023/07/05 05:33:52;;;;;;;;;;;;;;;16.45;100.00;100349.41;20741514;28;20509;-61
2023/07/05 05:44:14;;;;;;;10.27;6.43;;;;;;;16.45;98.76;100333.75;20711030;28;19926;-60
2023/07/05 05:54:35;;;;;;;;;;;;;;;16.60;100.00;100337.22;20723019;28;20435;-60
2023/07/05 06:04:57;;;;;;;9.60;5.80;;;;;;;16.68;99.80;100346.22;20704855;28;19921;-60
2023/07/05 06:15:18;;;;;;;8.73;6.78;;;;;;;16.84;98.54;100346.13;20697759;28;20369;-60
2023/07/05 06:25:40;;;;;;;;;;;;;;;16.90;97.48;100336.09;20706600;28;20408;-60
2023/07/05 06:36:02;;;;;;;3.40;2.40;;;;;;;16.81;87.62;100356.78;20703349;28;19973;-60
2023/07/05 06:46:24;;;;;;;6.07;2.60;;;;;;;16.45;83.74;100367.69;20706913;28;20095;-60
2023/07/05 06:56:45;;;;;;;3.38;2.53;;;;;;;16.23;82.61;100366.47;20699252;28;20046;-60
2023/07/05 07:07:07;;;;;;;6.45;2.88;;;;;;;16.42;82.72;100354.00;20699838;28;20176;-60
2023/07/05 07:17:29;;;;;;;4.45;2.58;;;;;;;16.78;81.62;100363.03;20715306;28;20495;-60
2023/07/05 07:27:51;;;;;;;7.45;2.60;;;;;;;16.94;79.65;100383.78;20703407;28;20070;-60
2023/07/05 07:38:12;;;;;;;5.15;3.00;;;;;;;17.03;80.33;100362.31;20707916;28;20052;-61
2023/07/05 07:48:34;;;;;;;4.30;2.83;;;;;;;17.23;76.32;100374.09;20703953;28;20058;-61
2023/07/05 07:58:58;;;;;;;3.35;2.35;;;;;;;17.49;75.15;100361.03;20717187;28;20530;-60
2023/07/05 08:09:22;;;;;;;7.00;2.63;;;;;;;17.58;71.16;100372.69;20718183;28;20153;-61
2023/07/05 08:19:44;;;;;;;9.00;2.58;;;;;;;17.67;73.07;100372.06;20715895;28;20439;-61
2023/07/05 08:30:06;;;;;;;3.97;2.35;;;;;;;17.68;70.22;100360.66;20712088;28;20168;-62
2023/07/05 08:40:33;;;;;;;5.95;2.47;;;;;;;18.22;65.75;100362.13;20738108;28;20579;-61
2023/07/05 08:50:56;;;;;;;5.93;2.40;;;;;;;18.22;69.66;100346.41;20708463;28;20050;-63
2023/07/05 09:01:40;;;;;;;3.75;1.95;;;;;;;18.26;68.13;100354.94;20710173;28;20045;-64
2023/07/05 09:12:20;;;;;;;9.95;2.20;;;;;;;17.66;70.19;100404.41;20722777;28;20060;-63
2023/07/05 09:22:43;;;;;;;3.33;2.13;;;;;;;17.38;74.94;100407.94;20725724;28;20484;-63
2023/07/05 09:33:12;;;;;;;3.60;2.15;;;;;;;16.98;77.82;100422.72;20695629;28;20053;-63
2023/07/05 09:43:36;;;;;;;5.47;2.25;;;;;;;16.80;77.20;100389.91;20695821;28;20085;-64
2023/07/05 09:54:03;;;;;;;11.25;1.90;;;;;;;16.95;74.36;100368.03;20698165;28;20563;-63
2023/07/05 10:04:27;;;;;;;9.98;1.88;;;;;;;16.86;74.57;100350.31;20693043;28;20049;-63
2023/07/05 10:14:54;;;;;;;4.93;1.88;;;;;;;17.01;73.75;100304.06;20673644;28;20302;-63
2023/07/05 10:25:20;;;;;;;5.35;1.23;;;;;;;16.84;73.48;100325.22;20703471;28;20092;-63
2023/07/05 10:35:53;;;;;;;4.13;1.40;;;;;;;16.83;74.30;100319.13;20697547;28;20037;-63
2023/07/05 10:46:18;;;;;;;4.32;1.67;;;;;;;16.68;74.95;100319.28;20703706;28;20046;-63
2023/07/05 10:56:43;;;;;;;10.10;1.60;;;;;;;16.87;73.33;100311.94;20700053;28;20678;-62
2023/07/05 11:07:10;;;;;;;2.42;1.20;;;;;;;17.13;71.23;100294.56;20694384;28;20140;-63
2023/07/05 11:17:34;;;;;;;9.60;1.02;;;;;;;17.19;69.79;100299.41;20714297;28;20518;-62
2023/07/05 11:27:56;;;;;;;2.45;0.90;;;;;;;17.04;70.70;100330.84;20733005;28;20038;-62
2023/07/05 11:38:37;;;;;;;3.80;0.90;;;;;;;16.72;72.07;100352.94;20724575;28;20046;-63
2023/07/05 11:49:19;;;;;;;6.10;1.00;;;;;;;16.60;71.25;100379.84;20745500;28;20058;-63
2023/07/05 11:59:47;;;;;;;6.55;1.00;;;;;;;16.47;72.58;100389.38;20714051;28;20392;-62
2023/07/05 12:10:15;;;;;;;5.72;0.90;;;;;;;15.81;77.36;100450.78;20716767;28;20052;-62
2023/07/05 12:20:39;;;;;;;8.48;1.00;;;;;;;15.72;78.03;100475.63;20719763;28;20069;-62
2023/07/05 12:31:07;;;;;;;5.57;1.42;;;;;;;15.62;78.64;100461.41;20717922;28;20080;-63
2023/07/05 12:41:28;;;;;;;8.00;1.60;;;;;;;15.65;79.92;100476.91;20709037;28;20037;-63
2023/07/05 12:51:54;;;;;;;9.00;1.90;;;;;;;15.69;80.24;100503.66;20719615;28;20046;-63
2023/07/05 13:02:25;;;;;;;5.35;1.10;;;;;;;15.19;82.84;100503.81;20704066;28;20048;-62
2023/07/05 13:12:58;;;;;;;5.80;1.38;;;;;;;15.05;84.63;100542.81;20708356;28;20042;-63
2023/07/05 13:23:29;;;;;;;14.10;1.50;;;;;;;15.34;80.40;100569.94;20708795;28;20038;-62
2023/07/05 13:33:56;;;;;;;5.13;1.40;;;;;;;15.60;78.93;100577.22;20709948;28;20038;-60
2023/07/05 13:44:19;;;;;;;6.63;1.70;;;;;;;16.12;76.71;100615.16;20698626;28;24468;-59
2023/07/05 13:54:41;;;;;;;6.80;1.70;;;;;;;16.33;76.33;100610.50;20701925;28;24420;-62
2023/07/05 14:05:03;;;;;;;8.90;1.92;;;;;;;16.47;75.51;100611.41;20700101;28;20042;-61
2023/07/05 14:15:25;;;;;;;;;;;;;;;16.64;75.13;100626.13;20702449;28;20044;-63
2023/07/05 14:25:49;;;;;;;6.82;1.83;;;;;;;16.82;73.84;100661.63;20706305;28;19922;-61
2023/07/05 14:36:13;;;;;;;5.28;1.60;;;;;;;17.10;72.43;100662.50;20689644;28;20046;-61
2023/07/05 14:46:34;;;;;;;5.97;1.63;;;;;;;17.13;72.60;100695.50;20702120;28;20113;-60
2023/07/05 14:56:56;;;;;;;8.10;1.50;;;;;;;16.69;74.02;100766.03;20703584;28;20100;-59
2023/07/05 15:07:18;;;;;;;;;;;;;;;16.48;74.91;100769.81;20716957;28;20058;-60
2023/07/05 15:17:40;;;;;;;7.85;1.40;;;;;;;16.43;74.97;100816.22;20695534;28;19921;-60
2023/07/05 15:28:03;;;;;;;;;;;;;;;16.39;76.58;100851.25;20700221;28;20397;-63
2023/07/05 15:38:25;;;;;;;;;;;;;;;16.37;76.39;100857.53;20740070;28;19922;-62
2023/07/05 15:48:46;;;;;;;;;;;;;;;16.38;76.48;100875.72;20717612;28;19926;-62
2023/07/05 15:59:12;;;;;;;8.63;2.38;;;;;;;16.45;75.07;100905.81;20696543;28;20478;-62
2023/07/05 16:09:34;;;;;;;4.82;1.85;;;;;;;16.44;74.88;100911.97;20706423;28;20049;-62
2023/07/05 16:19:55;;;;;;;;;;;;;;;16.72;72.88;100927.88;20729047;28;20049;-62
2023/07/05 16:30:17;;;;;;;3.80;1.97;;;;;;;16.76;72.66;100945.09;20716065;28;19928;-63
2023/07/05 16:40:39;;;;;;;8.02;2.25;;;;;;;16.87;72.47;100976.72;20707283;28;20384;-62
2023/07/05 16:51:01;;;;;;;;;;;;;;;17.12;69.49;100985.88;20711012;28;20377;-62
2023/07/05 17:01:23;;;;;;;8.18;2.08;;;;;;;16.96;70.19;101010.22;20707871;28;19937;-62
2023/07/05 17:11:45;;;;;;;6.72;2.10;;;;;;;16.75;73.24;101021.81;20708946;28;20133;-62
2023/07/05 17:22:07;;;;;;;9.52;2.45;;;;;;;17.00;71.41;101047.50;20732518;28;20085;-62
2023/07/05 17:32:28;;;;;;;4.72;1.85;;;;;;;16.95;71.23;101060.00;20727523;28;20531;-62
2023/07/05 17:42:51;;;;;;;7.18;2.20;;;;;;;16.94;70.34;101068.75;20707491;28;20048;-62
2023/07/05 17:53:12;;;;;;;;;;;;;;;16.95;67.27;101092.22;20695487;28;20050;-61
2023/07/05 18:03:38;;;;;;;8.27;1.80;;;;;;;16.87;69.57;101094.38;20708611;28;19928;-62
2023/07/05 18:14:00;;;;;;;6.25;1.75;;;;;;;16.97;69.47;101110.44;20720477;28;20460;-62
2023/07/05 18:24:21;;;;;;;6.88;2.00;;;;;;;17.07;69.10;101125.56;20713347;28;20042;-62
2023/07/05 18:34:43;;;;;;;5.38;2.00;;;;;;;17.03;70.21;101144.13;20721179;28;20045;-62
2023/07/05 18:45:07;;;;;;;5.70;1.70;;;;;;;16.97;70.47;101163.59;20734066;28;20033;-61
2023/07/05 18:55:28;;;;;;;5.25;1.80;;;;;;;16.89;70.92;101170.94;20682132;28;20049;-62
2023/07/05 19:05:56;;;;;;;7.35;1.80;;;;;;;16.80;71.61;101184.50;20697828;28;20053;-62
2023/07/05 19:16:21;;;;;;;7.00;1.75;;;;;;;16.73;72.16;101204.00;20707019;28;20686;-62
2023/07/05 19:26:44;;;;;;;5.35;1.40;;;;;;;16.63;72.40;101215.81;20704418;28;20053;-62
2023/07/05 19:37:05;;;;;;;3.60;1.58;;;;;;;16.55;73.13;101223.22;20699254;28;20046;-62
2023/07/05 19:47:27;;;;;;;;;;;;;;;16.44;73.97;101246.34;20726631;28;20056;-62
2023/07/05 19:57:49;;;;;;;4.90;2.03;;;;;;;16.38;74.51;101251.88;20725203;28;19929;-62
2023/07/05 20:08:11;;;;;;;4.80;1.75;;;;;;;16.33;75.00;101273.91;20713887;28;20050;-62
2023/07/05 20:18:33;;;;;;;4.53;1.80;;;;;;;16.22;74.86;101276.16;20711777;28;20046;-61
2023/07/05 20:28:55;;;;;;;3.38;1.90;;;;;;;16.13;75.32;101293.94;20711661;28;20048;-62
2023/07/05 20:39:16;;;;;;;9.90;2.10;;;;;;;16.00;76.02;101305.84;20722596;28;20664;-62
2023/07/05 20:49:38;;;;;;;;;;;;;;;15.88;77.14;101313.38;20714274;28;20049;-62
2023/07/05 21:00:02;;;;;;;2.92;2.10;;;;;;;15.74;77.52;101321.81;20711850;28;19936;-62
2023/07/05 21:10:24;;;;;;;5.35;2.97;;;;;;;15.67;79.40;101327.34;20711765;28;20136;-62
2023/07/05 21:20:45;;;;;;;;;;;;;;;15.60;81.69;101341.59;20703571;28;20044;-63
2023/07/05 21:31:08;;;;;;;5.70;2.73;;;;;;;15.50;80.49;101343.72;20711276;28;19929;-62
2023/07/05 21:41:30;;;;;;;6.07;2.72;;;;;;;15.50;80.45;101353.31;20731719;28;20120;-62
2023/07/05 21:51:53;;;;;;;7.03;2.70;;;;;;;15.39;82.18;101365.91;20703115;28;20038;-62
2023/07/05 22:02:15;;;;;;;5.55;2.53;;;;;;;15.28;82.24;101383.75;20689364;28;20423;-62
2023/07/05 22:12:40;;;;;;;;;;;;;;;15.13;85.00;101381.78;20705623;28;20046;-62
2023/07/05 22:23:02;;;;;;;6.35;2.83;;;;;;;15.02;83.66;101388.25;20701577;28;19988;-63
2023/07/05 22:33:24;;;;;;;6.45;3.47;;;;;;;14.99;83.87;101396.19;20699560;28;20052;-62
2023/07/05 22:43:46;;;;;;;9.52;3.20;;;;;;;14.83;85.58;101400.28;20738772;28;20076;-62
2023/07/05 22:54:07;;;;;;;;;;;;;;;14.81;86.48;101402.13;20700306;28;20567;-62
2023/07/05 23:04:33;;;;;;;8.93;3.10;;;;;;;14.72;85.31;101410.25;20699057;28;19925;-62
2023/07/05 23:14:55;;;;;;;7.63;3.03;;;;;;;14.72;84.27;101430.28;20702446;28;20128;-62
2023/07/05 23:25:16;;;;;;;7.85;2.72;;;;;;;14.62;84.46;101427.16;20727391;28;20167;-62
2023/07/05 23:35:38;;;;;;;7.55;2.70;;;;;;;14.58;84.57;101449.00;20732881;28;20046;-62
2023/07/05 23:46:02;;;;;;;;;;;;;;;14.52;86.48;101453.59;20700700;28;20144;-63
2023/07/05 23:56:24;;;;;;;;;;;;;;;14.47;86.27;101443.34;20717207;28;19925;-62
